Time (yr/mo/day/hr) Wind Speed at 50 metres (Glencore Tower; km/hr) Wind Direction at 50 metres (Glencore Tower; degrees) Temperature (oC) SO2 Dispersion Conditions Mixing Height (m)
2019 07 20 13 13 261 31 Moderately unstable 1890
2019 07 20 14 13 264 31 Moderately unstable 2024
2019 07 20 15 12 265 32 Moderately unstable 2066
2019 07 20 16 15 258 32 Slightly unstable 2045
2019 07 20 17 21 245 30 Slightly unstable 1964
2019 07 20 18 22 250 27 Neutral 1945
2019 07 20 19 19 259 26 Neutral 1128
2019 07 20 20 12 258 25 Neutral 441
2019 07 20 21 15 262 24 Slightly stable 789
2019 07 20 22 15 278 21 Slightly stable 706
2019 07 20 23 15 299 21 Slightly stable 760
2019 07 21 00 15 306 19 Slightly stable 737
2019 07 21 01 17 314 18 Slightly stable 920
2019 07 21 02 15 313 17 Slightly stable 785
2019 07 21 03 14 315 16 Slightly stable 685
2019 07 21 04 14 323 16 Slightly stable 629
2019 07 21 05 13 338 15 Slightly stable 576
2019 07 21 06 14 356 15 Neutral 640
2019 07 21 07 15 3 16 Neutral 927
2019 07 21 08 14 5 16 Slightly unstable 736
2019 07 21 09 12 3 16 Moderately unstable 585
2019 07 21 10 12 360 16 Moderately unstable 641
2019 07 21 11 13 6 18 Moderately unstable 735
2019 07 21 12 12 9 20 Moderately unstable 834
2019 07 21 13 11 6 21 Moderately unstable 964